sensor_id;sensor_type;location;lat;lon;timestamp;P1;durP1;ratioP1;P2;durP2;ratioP2
18224;SDS011;9237;48.590;8.854;2023-03-01T00:00:50;1.00;;;1.00;;
18224;SDS011;9237;48.590;8.854;2023-03-01T00:03:16;1.00;;;1.00;;
18224;SDS011;9237;48.590;8.854;2023-03-01T00:05:43;0.80;;;0.80;;
18224;SDS011;9237;48.590;8.854;2023-03-01T00:08:12;1.00;;;1.00;;
18224;SDS011;9237;48.590;8.854;2023-03-01T00:10:39;1.00;;;1.00;;
18224;SDS011;9237;48.590;8.854;2023-03-01T00:13:06;0.93;;;0.93;;
18224;SDS011;9237;48.590;8.854;2023-03-01T00:15:32;1.00;;;1.00;;
18224;SDS011;9237;48.590;8.854;2023-03-01T00:18:00;1.00;;;1.00;;
18224;SDS011;9237;48.590;8.854;2023-03-01T00:20:27;0.90;;;0.90;;
18224;SDS011;9237;48.590;8.854;2023-03-01T00:22:53;0.90;;;0.90;;
18224;SDS011;9237;48.590;8.854;2023-03-01T00:25:21;1.00;;;1.00;;
18224;SDS011;9237;48.590;8.854;2023-03-01T00:27:48;0.93;;;0.93;;
18224;SDS011;9237;48.590;8.854;2023-03-01T00:30:15;0.93;;;0.93;;
18224;SDS011;9237;48.590;8.854;2023-03-01T00:32:42;1.20;;;1.20;;
18224;SDS011;9237;48.590;8.854;2023-03-01T00:35:09;1.20;;;1.20;;
18224;SDS011;9237;48.590;8.854;2023-03-01T00:37:35;1.00;;;1.00;;
18224;SDS011;9237;48.590;8.854;2023-03-01T00:40:02;0.90;;;0.90;;
18224;SDS011;9237;48.590;8.854;2023-03-01T00:42:32;1.10;;;1.10;;
18224;SDS011;9237;48.590;8.854;2023-03-01T00:44:59;1.10;;;1.10;;
18224;SDS011;9237;48.590;8.854;2023-03-01T00:47:28;1.20;;;1.20;;
18224;SDS011;9237;48.590;8.854;2023-03-01T00:49:54;1.10;;;1.10;;
18224;SDS011;9237;48.590;8.854;2023-03-01T00:52:21;1.00;;;1.00;;
18224;SDS011;9237;48.590;8.854;2023-03-01T00:54:48;1.00;;;1.00;;
18224;SDS011;9237;48.590;8.854;2023-03-01T00:57:17;1.00;;;1.00;;
18224;SDS011;9237;48.590;8.854;2023-03-01T00:59:46;1.00;;;1.00;;
18224;SDS011;9237;48.590;8.854;2023-03-01T01:02:12;1.20;;;1.20;;
18224;SDS011;9237;48.590;8.854;2023-03-01T01:04:39;1.00;;;1.00;;
18224;SDS011;9237;48.590;8.854;2023-03-01T01:07:06;0.93;;;0.93;;
18224;SDS011;9237;48.590;8.854;2023-03-01T01:09:33;1.10;;;1.10;;
18224;SDS011;9237;48.590;8.854;2023-03-01T01:11:59;1.00;;;1.00;;
18224;SDS011;9237;48.590;8.854;2023-03-01T01:14:26;1.00;;;1.00;;
18224;SDS011;9237;48.590;8.854;2023-03-01T01:16:54;1.20;;;1.20;;
18224;SDS011;9237;48.590;8.854;2023-03-01T01:19:22;0.93;;;0.93;;
18224;SDS011;9237;48.590;8.854;2023-03-01T01:21:49;1.00;;;1.00;;
18224;SDS011;9237;48.590;8.854;2023-03-01T01:24:16;1.20;;;1.20;;
18224;SDS011;9237;48.590;8.854;2023-03-01T01:26:43;1.00;;;1.00;;
18224;SDS011;9237;48.590;8.854;2023-03-01T01:29:10;1.00;;;1.00;;
18224;SDS011;9237;48.590;8.854;2023-03-01T01:31:38;1.13;;;1.13;;
18224;SDS011;9237;48.590;8.854;2023-03-01T01:34:09;0.90;;;0.90;;
18224;SDS011;9237;48.590;8.854;2023-03-01T01:36:40;1.10;;;1.10;;
18224;SDS011;9237;48.590;8.854;2023-03-01T01:39:06;1.10;;;1.10;;
18224;SDS011;9237;48.590;8.854;2023-03-01T01:41:38;1.00;;;1.00;;
18224;SDS011;9237;48.590;8.854;2023-03-01T01:44:12;1.10;;;1.10;;
18224;SDS011;9237;48.590;8.854;2023-03-01T01:46:41;1.10;;;1.10;;
18224;SDS011;9237;48.590;8.854;2023-03-01T01:49:15;1.10;;;1.10;;
18224;SDS011;9237;48.590;8.854;2023-03-01T01:51:51;1.00;;;1.00;;
18224;SDS011;9237;48.590;8.854;2023-03-01T01:54:24;1.10;;;1.10;;
18224;SDS011;9237;48.590;8.854;2023-03-01T01:56:55;1.00;;;1.00;;
18224;SDS011;9237;48.590;8.854;2023-03-01T01:59:24;1.10;;;1.10;;
18224;SDS011;9237;48.590;8.854;2023-03-01T02:01:54;0.93;;;0.93;;
18224;SDS011;9237;48.590;8.854;2023-03-01T02:04:22;1.03;;;1.03;;
18224;SDS011;9237;48.590;8.854;2023-03-01T02:06:51;0.90;;;0.90;;
18224;SDS011;9237;48.590;8.854;2023-03-01T02:09:23;1.10;;;1.10;;
18224;SDS011;9237;48.590;8.854;2023-03-01T02:11:51;1.10;;;1.10;;
18224;SDS011;9237;48.590;8.854;2023-03-01T02:14:19;0.90;;;0.90;;
18224;SDS011;9237;48.590;8.854;2023-03-01T02:16:46;1.30;;;1.30;;
18224;SDS011;9237;48.590;8.854;2023-03-01T02:19:16;1.10;;;1.10;;
18224;SDS011;9237;48.590;8.854;2023-03-01T02:21:53;1.03;;;1.03;;
18224;SDS011;9237;48.590;8.854;2023-03-01T02:24:26;1.00;;;1.00;;
18224;SDS011;9237;48.590;8.854;2023-03-01T02:26:59;1.00;;;1.00;;
18224;SDS011;9237;48.590;8.854;2023-03-01T02:29:28;1.00;;;1.00;;
18224;SDS011;9237;48.590;8.854;2023-03-01T02:31:56;1.00;;;1.00;;
18224;SDS011;9237;48.590;8.854;2023-03-01T02:34:25;1.03;;;1.03;;
18224;SDS011;9237;48.590;8.854;2023-03-01T02:36:55;1.20;;;1.20;;
18224;SDS011;9237;48.590;8.854;2023-03-01T02:39:25;1.07;;;1.07;;
18224;SDS011;9237;48.590;8.854;2023-03-01T02:41:55;1.17;;;1.17;;
18224;SDS011;9237;48.590;8.854;2023-03-01T02:44:23;1.10;;;1.10;;
18224;SDS011;9237;48.590;8.854;2023-03-01T02:46:52;1.00;;;1.00;;
18224;SDS011;9237;48.590;8.854;2023-03-01T02:49:23;1.10;;;1.10;;
18224;SDS011;9237;48.590;8.854;2023-03-01T02:51:59;1.00;;;1.00;;
18224;SDS011;9237;48.590;8.854;2023-03-01T02:54:36;1.07;;;1.07;;
18224;SDS011;9237;48.590;8.854;2023-03-01T02:57:06;1.00;;;1.00;;
18224;SDS011;9237;48.590;8.854;2023-03-01T02:59:34;1.00;;;1.00;;
18224;SDS011;9237;48.590;8.854;2023-03-01T03:02:05;1.10;;;1.10;;
18224;SDS011;9237;48.590;8.854;2023-03-01T03:04:32;1.10;;;1.10;;
18224;SDS011;9237;48.590;8.854;2023-03-01T03:07:00;1.00;;;1.00;;
18224;SDS011;9237;48.590;8.854;2023-03-01T03:09:26;0.73;;;0.73;;
18224;SDS011;9237;48.590;8.854;2023-03-01T03:11:54;1.00;;;1.00;;
18224;SDS011;9237;48.590;8.854;2023-03-01T03:14:20;1.10;;;1.10;;
18224;SDS011;9237;48.590;8.854;2023-03-01T03:16:48;0.90;;;0.90;;
18224;SDS011;9237;48.590;8.854;2023-03-01T03:19:17;1.00;;;1.00;;
18224;SDS011;9237;48.590;8.854;2023-03-01T03:21:45;1.10;;;1.10;;
18224;SDS011;9237;48.590;8.854;2023-03-01T03:24:12;1.10;;;1.10;;
18224;SDS011;9237;48.590;8.854;2023-03-01T03:26:39;1.10;;;1.10;;
18224;SDS011;9237;48.590;8.854;2023-03-01T03:29:05;1.00;;;1.00;;
18224;SDS011;9237;48.590;8.854;2023-03-01T03:31:32;1.00;;;1.00;;
18224;SDS011;9237;48.590;8.854;2023-03-01T03:34:00;1.10;;;1.10;;
18224;SDS011;9237;48.590;8.854;2023-03-01T03:36:28;1.00;;;1.00;;
18224;SDS011;9237;48.590;8.854;2023-03-01T03:38:55;1.10;;;1.10;;
18224;SDS011;9237;48.590;8.854;2023-03-01T03:41:21;1.07;;;1.07;;
18224;SDS011;9237;48.590;8.854;2023-03-01T03:43:48;1.00;;;1.00;;
18224;SDS011;9237;48.590;8.854;2023-03-01T03:46:15;1.03;;;1.03;;
18224;SDS011;9237;48.590;8.854;2023-03-01T03:48:42;1.00;;;1.00;;
18224;SDS011;9237;48.590;8.854;2023-03-01T03:51:11;1.00;;;1.00;;
18224;SDS011;9237;48.590;8.854;2023-03-01T03:53:40;1.03;;;1.03;;
18224;SDS011;9237;48.590;8.854;2023-03-01T03:56:07;0.97;;;0.97;;
18224;SDS011;9237;48.590;8.854;2023-03-01T03:58:34;1.10;;;1.10;;
18224;SDS011;9237;48.590;8.854;2023-03-01T04:01:02;1.00;;;1.00;;
18224;SDS011;9237;48.590;8.854;2023-03-01T04:03:29;1.10;;;1.10;;
18224;SDS011;9237;48.590;8.854;2023-03-01T04:05:57;0.90;;;0.90;;
18224;SDS011;9237;48.590;8.854;2023-03-01T04:08:25;1.00;;;1.00;;
18224;SDS011;9237;48.590;8.854;2023-03-01T04:10:56;0.90;;;0.90;;
18224;SDS011;9237;48.590;8.854;2023-03-01T04:13:24;1.00;;;1.00;;
18224;SDS011;9237;48.590;8.854;2023-03-01T04:15:51;1.00;;;1.00;;
18224;SDS011;9237;48.590;8.854;2023-03-01T04:18:19;1.00;;;1.00;;
18224;SDS011;9237;48.590;8.854;2023-03-01T04:20:47;1.00;;;1.00;;
18224;SDS011;9237;48.590;8.854;2023-03-01T04:23:17;1.00;;;1.00;;
18224;SDS011;9237;48.590;8.854;2023-03-01T04:25:46;0.97;;;0.97;;
18224;SDS011;9237;48.590;8.854;2023-03-01T04:28:20;1.00;;;1.00;;
18224;SDS011;9237;48.590;8.854;2023-03-01T04:30:49;1.00;;;1.00;;
18224;SDS011;9237;48.590;8.854;2023-03-01T04:33:16;1.00;;;1.00;;
18224;SDS011;9237;48.590;8.854;2023-03-01T04:35:44;1.00;;;1.00;;
18224;SDS011;9237;48.590;8.854;2023-03-01T04:38:11;1.00;;;1.00;;
18224;SDS011;9237;48.590;8.854;2023-03-01T04:40:37;0.90;;;0.90;;
18224;SDS011;9237;48.590;8.854;2023-03-01T04:43:08;0.80;;;0.80;;
18224;SDS011;9237;48.590;8.854;2023-03-01T04:45:37;1.00;;;1.00;;
18224;SDS011;9237;48.590;8.854;2023-03-01T04:48:03;1.00;;;1.00;;
18224;SDS011;9237;48.590;8.854;2023-03-01T04:50:31;1.00;;;1.00;;
18224;SDS011;9237;48.590;8.854;2023-03-01T04:52:58;0.87;;;0.87;;
18224;SDS011;9237;48.590;8.854;2023-03-01T04:55:25;1.00;;;1.00;;
18224;SDS011;9237;48.590;8.854;2023-03-01T04:57:52;0.90;;;0.90;;
18224;SDS011;9237;48.590;8.854;2023-03-01T05:00:19;0.93;;;0.93;;
18224;SDS011;9237;48.590;8.854;2023-03-01T05:02:49;1.00;;;1.00;;
18224;SDS011;9237;48.590;8.854;2023-03-01T05:05:19;1.10;;;1.10;;
18224;SDS011;9237;48.590;8.854;2023-03-01T05:07:50;1.00;;;1.00;;
18224;SDS011;9237;48.590;8.854;2023-03-01T05:10:17;0.90;;;0.90;;
18224;SDS011;9237;48.590;8.854;2023-03-01T05:12:44;1.10;;;1.10;;
18224;SDS011;9237;48.590;8.854;2023-03-01T05:15:12;1.00;;;1.00;;
18224;SDS011;9237;48.590;8.854;2023-03-01T05:17:39;0.90;;;0.90;;
18224;SDS011;9237;48.590;8.854;2023-03-01T05:20:08;0.90;;;0.90;;
18224;SDS011;9237;48.590;8.854;2023-03-01T05:22:36;1.10;;;1.10;;
18224;SDS011;9237;48.590;8.854;2023-03-01T05:25:03;1.00;;;1.00;;
18224;SDS011;9237;48.590;8.854;2023-03-01T05:27:32;1.00;;;1.00;;
18224;SDS011;9237;48.590;8.854;2023-03-01T05:29:59;1.10;;;1.10;;
18224;SDS011;9237;48.590;8.854;2023-03-01T05:32:38;1.00;;;1.00;;
18224;SDS011;9237;48.590;8.854;2023-03-01T05:35:07;1.00;;;1.00;;
18224;SDS011;9237;48.590;8.854;2023-03-01T05:37:38;0.90;;;0.90;;
18224;SDS011;9237;48.590;8.854;2023-03-01T05:40:05;1.00;;;1.00;;
18224;SDS011;9237;48.590;8.854;2023-03-01T05:42:40;1.00;;;1.00;;
18224;SDS011;9237;48.590;8.854;2023-03-01T05:45:10;1.00;;;1.00;;
18224;SDS011;9237;48.590;8.854;2023-03-01T05:47:38;1.00;;;1.00;;
18224;SDS011;9237;48.590;8.854;2023-03-01T05:50:10;0.90;;;0.90;;
18224;SDS011;9237;48.590;8.854;2023-03-01T05:52:37;1.00;;;1.00;;
18224;SDS011;9237;48.590;8.854;2023-03-01T05:55:05;0.90;;;0.90;;
18224;SDS011;9237;48.590;8.854;2023-03-01T05:57:32;0.90;;;0.90;;
18224;SDS011;9237;48.590;8.854;2023-03-01T05:59:59;1.00;;;1.00;;
18224;SDS011;9237;48.590;8.854;2023-03-01T06:02:25;1.00;;;1.00;;
18224;SDS011;9237;48.590;8.854;2023-03-01T06:04:54;0.83;;;0.83;;
18224;SDS011;9237;48.590;8.854;2023-03-01T06:07:22;1.00;;;1.00;;
18224;SDS011;9237;48.590;8.854;2023-03-01T06:09:49;0.90;;;0.90;;
18224;SDS011;9237;48.590;8.854;2023-03-01T06:12:15;1.00;;;1.00;;
18224;SDS011;9237;48.590;8.854;2023-03-01T06:14:42;0.93;;;0.93;;
18224;SDS011;9237;48.590;8.854;2023-03-01T06:17:09;1.00;;;1.00;;
18224;SDS011;9237;48.590;8.854;2023-03-01T06:19:36;1.00;;;1.00;;
18224;SDS011;9237;48.590;8.854;2023-03-01T06:22:02;1.00;;;1.00;;
18224;SDS011;9237;48.590;8.854;2023-03-01T06:24:30;1.00;;;1.00;;
18224;SDS011;9237;48.590;8.854;2023-03-01T06:26:58;1.00;;;1.00;;
18224;SDS011;9237;48.590;8.854;2023-03-01T06:29:25;1.00;;;1.00;;
18224;SDS011;9237;48.590;8.854;2023-03-01T06:31:52;1.00;;;1.00;;
18224;SDS011;9237;48.590;8.854;2023-03-01T06:34:19;1.00;;;1.00;;
18224;SDS011;9237;48.590;8.854;2023-03-01T06:36:46;1.00;;;1.00;;
18224;SDS011;9237;48.590;8.854;2023-03-01T06:39:13;0.90;;;0.90;;
18224;SDS011;9237;48.590;8.854;2023-03-01T06:41:43;1.00;;;1.00;;
18224;SDS011;9237;48.590;8.854;2023-03-01T06:44:09;1.00;;;1.00;;
18224;SDS011;9237;48.590;8.854;2023-03-01T06:46:36;0.90;;;0.90;;
18224;SDS011;9237;48.590;8.854;2023-03-01T06:49:03;0.90;;;0.90;;
18224;SDS011;9237;48.590;8.854;2023-03-01T06:51:34;0.90;;;0.90;;
18224;SDS011;9237;48.590;8.854;2023-03-01T06:54:02;1.00;;;1.00;;
18224;SDS011;9237;48.590;8.854;2023-03-01T06:56:29;1.00;;;1.00;;
18224;SDS011;9237;48.590;8.854;2023-03-01T06:58:57;1.00;;;1.00;;
18224;SDS011;9237;48.590;8.854;2023-03-01T07:01:23;1.00;;;1.00;;
18224;SDS011;9237;48.590;8.854;2023-03-01T07:03:50;0.90;;;0.90;;
18224;SDS011;9237;48.590;8.854;2023-03-01T07:06:17;1.00;;;1.00;;
18224;SDS011;9237;48.590;8.854;2023-03-01T07:08:44;1.00;;;1.00;;
18224;SDS011;9237;48.590;8.854;2023-03-01T07:11:11;0.90;;;0.90;;
18224;SDS011;9237;48.590;8.854;2023-03-01T07:13:38;1.10;;;1.10;;
18224;SDS011;9237;48.590;8.854;2023-03-01T07:16:07;1.03;;;1.03;;
18224;SDS011;9237;48.590;8.854;2023-03-01T07:18:34;0.93;;;0.93;;
18224;SDS011;9237;48.590;8.854;2023-03-01T07:21:03;0.90;;;0.90;;
18224;SDS011;9237;48.590;8.854;2023-03-01T07:23:30;1.00;;;1.00;;
18224;SDS011;9237;48.590;8.854;2023-03-01T07:25:57;1.00;;;1.00;;
18224;SDS011;9237;48.590;8.854;2023-03-01T07:28:25;0.90;;;0.90;;
18224;SDS011;9237;48.590;8.854;2023-03-01T07:30:53;0.90;;;0.90;;
18224;SDS011;9237;48.590;8.854;2023-03-01T07:33:21;1.00;;;1.00;;
18224;SDS011;9237;48.590;8.854;2023-03-01T07:35:48;0.90;;;0.90;;
18224;SDS011;9237;48.590;8.854;2023-03-01T07:38:14;0.90;;;0.90;;
18224;SDS011;9237;48.590;8.854;2023-03-01T07:40:41;1.33;;;0.80;;
18224;SDS011;9237;48.590;8.854;2023-03-01T07:43:08;0.80;;;0.80;;
18224;SDS011;9237;48.590;8.854;2023-03-01T07:45:34;0.90;;;0.90;;
18224;SDS011;9237;48.590;8.854;2023-03-01T07:48:01;0.97;;;0.97;;
18224;SDS011;9237;48.590;8.854;2023-03-01T07:50:30;0.90;;;0.90;;
18224;SDS011;9237;48.590;8.854;2023-03-01T07:52:56;0.90;;;0.90;;
18224;SDS011;9237;48.590;8.854;2023-03-01T07:55:23;0.90;;;0.90;;
18224;SDS011;9237;48.590;8.854;2023-03-01T07:57:50;0.80;;;0.80;;
18224;SDS011;9237;48.590;8.854;2023-03-01T08:00:17;0.90;;;0.90;;
18224;SDS011;9237;48.590;8.854;2023-03-01T08:02:44;0.90;;;0.90;;
18224;SDS011;9237;48.590;8.854;2023-03-01T08:05:11;0.90;;;0.90;;
18224;SDS011;9237;48.590;8.854;2023-03-01T08:07:39;0.90;;;0.90;;
18224;SDS011;9237;48.590;8.854;2023-03-01T08:10:06;0.90;;;0.90;;
18224;SDS011;9237;48.590;8.854;2023-03-01T08:12:34;1.00;;;1.00;;
18224;SDS011;9237;48.590;8.854;2023-03-01T08:15:01;0.90;;;0.90;;
18224;SDS011;9237;48.590;8.854;2023-03-01T08:17:28;0.80;;;0.80;;
18224;SDS011;9237;48.590;8.854;2023-03-01T08:19:55;0.80;;;0.80;;
18224;SDS011;9237;48.590;8.854;2023-03-01T08:22:22;0.80;;;0.80;;
18224;SDS011;9237;48.590;8.854;2023-03-01T08:24:51;1.00;;;1.00;;
18224;SDS011;9237;48.590;8.854;2023-03-01T08:27:17;0.73;;;0.73;;
18224;SDS011;9237;48.590;8.854;2023-03-01T08:29:44;0.80;;;0.80;;
18224;SDS011;9237;48.590;8.854;2023-03-01T08:32:11;0.80;;;0.80;;
18224;SDS011;9237;48.590;8.854;2023-03-01T08:34:38;0.90;;;0.90;;
18224;SDS011;9237;48.590;8.854;2023-03-01T08:37:04;0.70;;;0.70;;
18224;SDS011;9237;48.590;8.854;2023-03-01T08:39:31;0.80;;;0.80;;
18224;SDS011;9237;48.590;8.854;2023-03-01T08:41:59;0.70;;;0.70;;
18224;SDS011;9237;48.590;8.854;2023-03-01T08:44:26;0.80;;;0.80;;
18224;SDS011;9237;48.590;8.854;2023-03-01T08:46:53;0.70;;;0.70;;
18224;SDS011;9237;48.590;8.854;2023-03-01T08:49:20;0.80;;;0.80;;
18224;SDS011;9237;48.590;8.854;2023-03-01T08:51:47;0.80;;;0.80;;
18224;SDS011;9237;48.590;8.854;2023-03-01T08:54:15;0.80;;;0.80;;
18224;SDS011;9237;48.590;8.854;2023-03-01T08:56:43;0.80;;;0.80;;
18224;SDS011;9237;48.590;8.854;2023-03-01T08:59:12;0.70;;;0.70;;
18224;SDS011;9237;48.590;8.854;2023-03-01T09:01:40;0.80;;;0.80;;
18224;SDS011;9237;48.590;8.854;2023-03-01T09:04:08;0.70;;;0.70;;
18224;SDS011;9237;48.590;8.854;2023-03-01T09:06:36;0.80;;;0.80;;
18224;SDS011;9237;48.590;8.854;2023-03-01T09:09:04;0.90;;;0.90;;
18224;SDS011;9237;48.590;8.854;2023-03-01T09:11:32;0.70;;;0.70;;
18224;SDS011;9237;48.590;8.854;2023-03-01T09:13:59;0.70;;;0.70;;
18224;SDS011;9237;48.590;8.854;2023-03-01T09:16:27;0.70;;;0.70;;
18224;SDS011;9237;48.590;8.854;2023-03-01T09:18:58;0.80;;;0.80;;
18224;SDS011;9237;48.590;8.854;2023-03-01T09:21:25;0.80;;;0.80;;
18224;SDS011;9237;48.590;8.854;2023-03-01T09:23:52;0.80;;;0.80;;
18224;SDS011;9237;48.590;8.854;2023-03-01T09:26:21;0.70;;;0.70;;
18224;SDS011;9237;48.590;8.854;2023-03-01T09:28:49;0.70;;;0.70;;
18224;SDS011;9237;48.590;8.854;2023-03-01T09:31:18;0.70;;;0.70;;
18224;SDS011;9237;48.590;8.854;2023-03-01T09:33:48;0.80;;;0.80;;
18224;SDS011;9237;48.590;8.854;2023-03-01T09:36:17;0.80;;;0.80;;
18224;SDS011;9237;48.590;8.854;2023-03-01T09:38:45;0.80;;;0.80;;
18224;SDS011;9237;48.590;8.854;2023-03-01T09:41:20;0.80;;;0.80;;
18224;SDS011;9237;48.590;8.854;2023-03-01T09:43:59;0.70;;;0.70;;
18224;SDS011;9237;48.590;8.854;2023-03-01T09:46:29;0.70;;;0.70;;
18224;SDS011;9237;48.590;8.854;2023-03-01T09:49:04;0.80;;;0.80;;
18224;SDS011;9237;48.590;8.854;2023-03-01T09:51:38;0.80;;;0.80;;
18224;SDS011;9237;48.590;8.854;2023-03-01T09:54:05;0.80;;;0.80;;
18224;SDS011;9237;48.590;8.854;2023-03-01T09:56:33;0.70;;;0.70;;
18224;SDS011;9237;48.590;8.854;2023-03-01T09:59:06;0.80;;;0.80;;
18224;SDS011;9237;48.590;8.854;2023-03-01T10:01:46;0.93;;;0.93;;
18224;SDS011;9237;48.590;8.854;2023-03-01T10:04:32;0.80;;;0.80;;
18224;SDS011;9237;48.590;8.854;2023-03-01T10:07:17;0.80;;;0.80;;
18224;SDS011;9237;48.590;8.854;2023-03-01T10:09:56;0.80;;;0.80;;
18224;SDS011;9237;48.590;8.854;2023-03-01T10:12:26;0.80;;;0.80;;
18224;SDS011;9237;48.590;8.854;2023-03-01T10:15:00;0.70;;;0.70;;
18224;SDS011;9237;48.590;8.854;2023-03-01T10:17:33;0.70;;;0.70;;
18224;SDS011;9237;48.590;8.854;2023-03-01T10:20:14;0.80;;;0.80;;
18224;SDS011;9237;48.590;8.854;2023-03-01T10:22:43;0.80;;;0.80;;
18224;SDS011;9237;48.590;8.854;2023-03-01T10:25:15;0.90;;;0.90;;
18224;SDS011;9237;48.590;8.854;2023-03-01T10:27:46;0.80;;;0.80;;
18224;SDS011;9237;48.590;8.854;2023-03-01T10:30:19;0.70;;;0.70;;
18224;SDS011;9237;48.590;8.854;2023-03-01T10:32:48;0.70;;;0.70;;
18224;SDS011;9237;48.590;8.854;2023-03-01T10:35:21;0.80;;;0.80;;
18224;SDS011;9237;48.590;8.854;2023-03-01T10:37:58;0.80;;;0.80;;
18224;SDS011;9237;48.590;8.854;2023-03-01T10:40:29;0.80;;;0.80;;
18224;SDS011;9237;48.590;8.854;2023-03-01T10:42:57;0.80;;;0.80;;
18224;SDS011;9237;48.590;8.854;2023-03-01T10:45:32;0.80;;;0.80;;
18224;SDS011;9237;48.590;8.854;2023-03-01T10:48:11;0.70;;;0.70;;
18224;SDS011;9237;48.590;8.854;2023-03-01T10:50:41;0.80;;;0.80;;
18224;SDS011;9237;48.590;8.854;2023-03-01T10:53:18;0.80;;;0.80;;
18224;SDS011;9237;48.590;8.854;2023-03-01T10:55:56;0.80;;;0.80;;
18224;SDS011;9237;48.590;8.854;2023-03-01T10:58:24;0.80;;;0.80;;
18224;SDS011;9237;48.590;8.854;2023-03-01T11:00:52;0.80;;;0.80;;
18224;SDS011;9237;48.590;8.854;2023-03-01T11:03:23;0.80;;;0.80;;
18224;SDS011;9237;48.590;8.854;2023-03-01T11:05:54;0.80;;;0.80;;
18224;SDS011;9237;48.590;8.854;2023-03-01T11:08:29;0.90;;;0.90;;
18224;SDS011;9237;48.590;8.854;2023-03-01T11:11:04;0.70;;;0.70;;
18224;SDS011;9237;48.590;8.854;2023-03-01T11:13:49;0.80;;;0.80;;
18224;SDS011;9237;48.590;8.854;2023-03-01T11:16:22;0.80;;;0.80;;
18224;SDS011;9237;48.590;8.854;2023-03-01T11:18:58;0.80;;;0.80;;
18224;SDS011;9237;48.590;8.854;2023-03-01T11:21:28;0.70;;;0.70;;
18224;SDS011;9237;48.590;8.854;2023-03-01T11:23:59;0.80;;;0.80;;
18224;SDS011;9237;48.590;8.854;2023-03-01T11:26:28;0.80;;;0.80;;
18224;SDS011;9237;48.590;8.854;2023-03-01T11:28:58;0.70;;;0.70;;
18224;SDS011;9237;48.590;8.854;2023-03-01T11:31:30;0.80;;;0.80;;
18224;SDS011;9237;48.590;8.854;2023-03-01T11:33:59;0.80;;;0.80;;
18224;SDS011;9237;48.590;8.854;2023-03-01T11:36:36;0.90;;;0.90;;
18224;SDS011;9237;48.590;8.854;2023-03-01T11:39:13;0.90;;;0.90;;
18224;SDS011;9237;48.590;8.854;2023-03-01T11:41:48;0.97;;;0.97;;
18224;SDS011;9237;48.590;8.854;2023-03-01T11:44:20;0.70;;;0.70;;
18224;SDS011;9237;48.590;8.854;2023-03-01T11:46:55;0.80;;;0.80;;
18224;SDS011;9237;48.590;8.854;2023-03-01T11:49:40;0.83;;;0.83;;
18224;SDS011;9237;48.590;8.854;2023-03-01T11:52:20;0.80;;;0.80;;
18224;SDS011;9237;48.590;8.854;2023-03-01T11:55:00;0.80;;;0.80;;
18224;SDS011;9237;48.590;8.854;2023-03-01T11:57:49;0.80;;;0.80;;
18224;SDS011;9237;48.590;8.854;2023-03-01T12:00:31;0.80;;;0.80;;
18224;SDS011;9237;48.590;8.854;2023-03-01T12:03:17;0.70;;;0.70;;
18224;SDS011;9237;48.590;8.854;2023-03-01T12:06:04;0.70;;;0.70;;
18224;SDS011;9237;48.590;8.854;2023-03-01T12:08:55;0.80;;;0.80;;
18224;SDS011;9237;48.590;8.854;2023-03-01T12:11:41;0.80;;;0.80;;
18224;SDS011;9237;48.590;8.854;2023-03-01T12:14:23;0.80;;;0.80;;
18224;SDS011;9237;48.590;8.854;2023-03-01T12:17:19;0.80;;;0.80;;
18224;SDS011;9237;48.590;8.854;2023-03-01T12:20:02;0.70;;;0.70;;
18224;SDS011;9237;48.590;8.854;2023-03-01T12:22:43;0.80;;;0.80;;
18224;SDS011;9237;48.590;8.854;2023-03-01T12:25:24;0.70;;;0.70;;
18224;SDS011;9237;48.590;8.854;2023-03-01T12:28:02;0.80;;;0.80;;
18224;SDS011;9237;48.590;8.854;2023-03-01T12:30:54;0.80;;;0.80;;
18224;SDS011;9237;48.590;8.854;2023-03-01T12:33:38;0.90;;;0.90;;
18224;SDS011;9237;48.590;8.854;2023-03-01T12:39:06;0.80;;;0.80;;
18224;SDS011;9237;48.590;8.854;2023-03-01T12:41:51;0.70;;;0.70;;
18224;SDS011;9237;48.590;8.854;2023-03-01T12:44:35;0.70;;;0.70;;
18224;SDS011;9237;48.590;8.854;2023-03-01T12:47:18;0.70;;;0.70;;
18224;SDS011;9237;48.590;8.854;2023-03-01T12:49:54;1.00;;;1.00;;
18224;SDS011;9237;48.590;8.854;2023-03-01T12:52:25;0.83;;;0.83;;
18224;SDS011;9237;48.590;8.854;2023-03-01T12:55:02;0.70;;;0.70;;
18224;SDS011;9237;48.590;8.854;2023-03-01T12:57:37;0.80;;;0.80;;
18224;SDS011;9237;48.590;8.854;2023-03-01T13:00:14;0.80;;;0.80;;
18224;SDS011;9237;48.590;8.854;2023-03-01T13:02:53;0.80;;;0.80;;
18224;SDS011;9237;48.590;8.854;2023-03-01T13:05:29;0.80;;;0.80;;
18224;SDS011;9237;48.590;8.854;2023-03-01T13:08:08;0.70;;;0.70;;
18224;SDS011;9237;48.590;8.854;2023-03-01T13:10:43;0.80;;;0.80;;
18224;SDS011;9237;48.590;8.854;2023-03-01T13:13:19;0.80;;;0.80;;
18224;SDS011;9237;48.590;8.854;2023-03-01T13:15:46;0.80;;;0.80;;
18224;SDS011;9237;48.590;8.854;2023-03-01T13:18:30;0.80;;;0.80;;
18224;SDS011;9237;48.590;8.854;2023-03-01T13:21:02;0.70;;;0.70;;
18224;SDS011;9237;48.590;8.854;2023-03-01T13:23:31;0.70;;;0.70;;
18224;SDS011;9237;48.590;8.854;2023-03-01T13:26:08;0.70;;;0.70;;
18224;SDS011;9237;48.590;8.854;2023-03-01T13:28:46;0.90;;;0.90;;
18224;SDS011;9237;48.590;8.854;2023-03-01T13:37:27;0.80;;;0.80;;
18224;SDS011;9237;48.590;8.854;2023-03-01T13:39:56;0.70;;;0.70;;
18224;SDS011;9237;48.590;8.854;2023-03-01T13:42:40;0.80;;;0.80;;
18224;SDS011;9237;48.590;8.854;2023-03-01T13:45:20;0.70;;;0.70;;
18224;SDS011;9237;48.590;8.854;2023-03-01T13:47:59;0.80;;;0.80;;
18224;SDS011;9237;48.590;8.854;2023-03-01T13:50:32;0.70;;;0.70;;
18224;SDS011;9237;48.590;8.854;2023-03-01T13:53:04;0.80;;;0.80;;
18224;SDS011;9237;48.590;8.854;2023-03-01T13:55:34;0.80;;;0.80;;
18224;SDS011;9237;48.590;8.854;2023-03-01T13:58:04;0.70;;;0.70;;
18224;SDS011;9237;48.590;8.854;2023-03-01T14:00:42;0.70;;;0.70;;
18224;SDS011;9237;48.590;8.854;2023-03-01T14:03:10;0.70;;;0.70;;
18224;SDS011;9237;48.590;8.854;2023-03-01T14:05:39;0.80;;;0.80;;
18224;SDS011;9237;48.590;8.854;2023-03-01T14:08:18;0.70;;;0.70;;
18224;SDS011;9237;48.590;8.854;2023-03-01T14:10:59;0.80;;;0.80;;
18224;SDS011;9237;48.590;8.854;2023-03-01T14:13:38;0.70;;;0.70;;
18224;SDS011;9237;48.590;8.854;2023-03-01T14:16:20;0.80;;;0.80;;
18224;SDS011;9237;48.590;8.854;2023-03-01T14:18:59;0.60;;;0.60;;
18224;SDS011;9237;48.590;8.854;2023-03-01T14:21:36;0.80;;;0.80;;
18224;SDS011;9237;48.590;8.854;2023-03-01T14:24:03;0.80;;;0.80;;
18224;SDS011;9237;48.590;8.854;2023-03-01T14:26:30;0.70;;;0.70;;
18224;SDS011;9237;48.590;8.854;2023-03-01T14:29:01;0.70;;;0.70;;
18224;SDS011;9237;48.590;8.854;2023-03-01T14:31:34;0.80;;;0.80;;
18224;SDS011;9237;48.590;8.854;2023-03-01T14:34:03;0.70;;;0.70;;
18224;SDS011;9237;48.590;8.854;2023-03-01T14:36:31;0.80;;;0.80;;
18224;SDS011;9237;48.590;8.854;2023-03-01T14:38:59;0.80;;;0.80;;
18224;SDS011;9237;48.590;8.854;2023-03-01T14:41:30;0.70;;;0.70;;
18224;SDS011;9237;48.590;8.854;2023-03-01T14:44:00;0.70;;;0.70;;
18224;SDS011;9237;48.590;8.854;2023-03-01T14:46:30;0.80;;;0.80;;
18224;SDS011;9237;48.590;8.854;2023-03-01T14:49:02;0.70;;;0.70;;
18224;SDS011;9237;48.590;8.854;2023-03-01T14:51:30;0.70;;;0.70;;
18224;SDS011;9237;48.590;8.854;2023-03-01T14:54:02;0.70;;;0.70;;
18224;SDS011;9237;48.590;8.854;2023-03-01T14:56:42;0.70;;;0.70;;
18224;SDS011;9237;48.590;8.854;2023-03-01T14:59:11;0.60;;;0.60;;
18224;SDS011;9237;48.590;8.854;2023-03-01T15:01:40;0.70;;;0.70;;
18224;SDS011;9237;48.590;8.854;2023-03-01T15:04:09;0.70;;;0.70;;
18224;SDS011;9237;48.590;8.854;2023-03-01T15:06:38;0.80;;;0.80;;
18224;SDS011;9237;48.590;8.854;2023-03-01T15:09:06;0.80;;;0.80;;
18224;SDS011;9237;48.590;8.854;2023-03-01T15:11:37;0.70;;;0.70;;
18224;SDS011;9237;48.590;8.854;2023-03-01T15:16:55;0.70;;;0.70;;
18224;SDS011;9237;48.590;8.854;2023-03-01T15:19:23;0.70;;;0.70;;
18224;SDS011;9237;48.590;8.854;2023-03-01T15:21:54;0.60;;;0.60;;
18224;SDS011;9237;48.590;8.854;2023-03-01T15:24:23;0.80;;;0.80;;
18224;SDS011;9237;48.590;8.854;2023-03-01T15:26:53;0.80;;;0.80;;
18224;SDS011;9237;48.590;8.854;2023-03-01T15:29:23;0.70;;;0.70;;
18224;SDS011;9237;48.590;8.854;2023-03-01T15:31:57;0.70;;;0.70;;